Time;durP1;ratioP1;P1;durP2;ratioP2;P2;SDS_P1;SDS_P2;PMS_P1;PMS_P2;Temp;Humidity;BMP_temperature;BMP_pressure;BME280_temperature;BME280_humidity;BME280_pressure;Samples;Min_cycle;Max_cycle;Signal;HPM_P1;HPM_P2
2024/04/08 00:00:06;;;;;;;2.35;1.08;;;17.50;99.90;;;;;;4143548;28;20500;-69
2024/04/08 00:02:06;;;;;;;4.43;1.00;;;17.50;99.90;;;;;;4144983;28;20398;-68
2024/04/08 00:04:07;;;;;;;4.15;1.00;;;17.50;99.90;;;;;;4138748;28;20052;-69
2024/04/08 00:06:07;;;;;;;2.20;1.02;;;17.50;99.90;;;;;;4144698;28;20033;-68
2024/04/08 00:08:08;;;;;;;2.78;1.10;;;17.50;99.90;;;;;;4145551;28;20549;-68
2024/04/08 00:10:09;;;;;;;2.30;1.00;;;17.50;99.90;;;;;;4137151;28;20050;-70
2024/04/08 00:12:10;;;;;;;2.10;1.20;;;17.50;99.90;;;;;;4145532;28;20435;-68
2024/04/08 00:14:10;;;;;;;2.95;1.10;;;17.50;99.90;;;;;;4143753;28;20120;-69
2024/04/08 00:16:11;;;;;;;2.38;1.08;;;17.50;99.90;;;;;;4132173;28;20462;-69
2024/04/08 00:18:13;;;;;;;2.63;1.25;;;17.50;99.90;;;;;;4143949;28;20041;-66
2024/04/08 00:20:14;;;;;;;3.90;1.63;;;17.50;99.90;;;;;;4135401;28;20463;-65
2024/04/08 00:22:14;;;;;;;2.42;1.23;;;17.50;99.90;;;;;;4142715;28;20041;-66
2024/04/08 00:24:16;;;;;;;2.55;1.10;;;17.50;99.90;;;;;;4134355;28;20041;-65
2024/04/08 00:26:18;;;;;;;2.47;1.27;;;17.50;99.90;;;;;;4127345;28;20070;-65
2024/04/08 00:28:19;;;;;;;3.22;1.08;;;17.50;99.90;;;;;;4131096;28;20118;-66
2024/04/08 00:30:20;;;;;;;2.38;1.25;;;17.40;99.90;;;;;;4140330;28;20038;-66
2024/04/08 00:32:20;;;;;;;1.70;1.40;;;17.40;99.90;;;;;;4138860;28;20031;-65
2024/04/08 00:34:21;;;;;;;2.03;1.30;;;17.50;99.90;;;;;;4136090;28;20149;-66
2024/04/08 00:36:22;;;;;;;2.40;1.15;;;17.40;99.90;;;;;;4133537;28;20573;-65
2024/04/08 00:38:23;;;;;;;4.68;1.50;;;17.40;99.90;;;;;;4139441;28;21711;-66
2024/04/08 00:40:23;;;;;;;1.65;1.10;;;17.40;99.90;;;;;;4132238;28;20430;-65
2024/04/08 00:42:24;;;;;;;2.67;1.17;;;17.40;99.90;;;;;;4141236;28;20030;-65
2024/04/08 00:44:25;;;;;;;1.77;1.00;;;17.40;99.90;;;;;;4135536;28;20117;-65
2024/04/08 00:46:26;;;;;;;3.38;1.40;;;17.40;99.90;;;;;;4142474;28;20498;-65
2024/04/08 00:48:27;;;;;;;2.08;1.23;;;17.40;99.90;;;;;;4135263;28;20026;-66
2024/04/08 00:50:28;;;;;;;2.80;1.13;;;17.40;99.90;;;;;;4137619;28;20447;-65
2024/04/08 00:52:29;;;;;;;3.10;1.20;;;17.40;99.90;;;;;;4133608;28;20077;-65
2024/04/08 00:54:32;;;;;;;2.53;1.08;;;17.30;99.90;;;;;;4141601;28;20029;-65
2024/04/08 00:56:33;;;;;;;4.35;1.40;;;17.30;99.90;;;;;;4130870;28;20050;-66
2024/04/08 00:58:34;;;;;;;2.03;1.10;;;17.20;99.90;;;;;;4132715;28;20120;-68
2024/04/08 01:00:34;;;;;;;3.35;1.10;;;17.20;99.90;;;;;;4140037;28;20038;-66
2024/04/08 01:02:35;;;;;;;2.22;0.90;;;17.20;99.90;;;;;;4138819;28;20134;-66
2024/04/08 01:04:37;;;;;;;2.72;1.30;;;17.20;99.90;;;;;;4140901;28;20033;-66
2024/04/08 01:06:38;;;;;;;4.27;1.13;;;17.20;99.90;;;;;;4140860;28;20046;-66
2024/04/08 01:08:40;;;;;;;2.72;1.42;;;17.30;99.90;;;;;;4136929;28;20261;-66
2024/04/08 01:10:42;;;;;;;1.83;1.10;;;17.30;99.90;;;;;;4138497;28;20026;-66
2024/04/08 01:12:43;;;;;;;2.80;1.48;;;17.20;99.90;;;;;;4142942;28;20124;-66
2024/04/08 01:14:44;;;;;;;2.60;1.20;;;17.30;99.90;;;;;;4139768;28;20478;-66
2024/04/08 01:16:44;;;;;;;2.33;1.05;;;17.30;99.90;;;;;;4138903;28;20092;-65
2024/04/08 01:18:45;;;;;;;1.80;1.20;;;17.30;99.90;;;;;;4143955;28;20111;-66
2024/04/08 01:20:45;;;;;;;2.10;1.17;;;17.30;99.90;;;;;;4142092;28;20034;-66
2024/04/08 01:22:48;;;;;;;3.10;1.30;;;17.30;99.90;;;;;;4140199;28;20038;-66
2024/04/08 01:24:49;;;;;;;1.50;0.95;;;17.30;99.90;;;;;;4141713;28;20034;-66
2024/04/08 01:26:50;;;;;;;1.45;1.02;;;17.30;99.90;;;;;;4138877;28;20069;-66
2024/04/08 01:28:50;;;;;;;1.88;1.20;;;17.30;99.90;;;;;;4134906;28;20113;-61
2024/04/08 01:30:51;;;;;;;1.95;1.10;;;17.30;99.90;;;;;;4134060;28;20651;-61
2024/04/08 01:32:52;;;;;;;2.28;1.30;;;17.30;99.90;;;;;;4144038;28;20665;-61
2024/04/08 01:34:52;;;;;;;2.58;1.20;;;17.30;99.90;;;;;;4132523;28;20041;-61
2024/04/08 01:36:53;;;;;;;1.85;1.05;;;17.30;99.90;;;;;;4129451;28;20030;-61
2024/04/08 01:38:53;;;;;;;2.17;1.33;;;17.30;99.90;;;;;;4139749;28;20125;-62
2024/04/08 01:40:55;;;;;;;1.67;1.00;;;17.30;99.90;;;;;;4140226;28;20038;-62
2024/04/08 01:42:56;;;;;;;1.98;1.20;;;17.30;99.90;;;;;;4145114;28;20489;-61
2024/04/08 01:44:56;;;;;;;2.45;1.30;;;17.20;99.90;;;;;;4138291;28;20045;-61
2024/04/08 01:46:57;;;;;;;2.30;1.67;;;17.10;99.90;;;;;;4140989;28;20068;-61
2024/04/08 01:48:58;;;;;;;1.25;0.98;;;16.90;99.90;;;;;;4130664;28;20049;-61
2024/04/08 01:50:58;;;;;;;2.17;1.10;;;16.90;99.90;;;;;;4136956;28;20130;-61
2024/04/08 01:52:59;;;;;;;2.53;1.30;;;16.90;99.90;;;;;;4138860;28;20109;-61
2024/04/08 01:55:00;;;;;;;2.58;1.23;;;16.80;99.90;;;;;;4142105;28;20041;-61
2024/04/08 01:57:00;;;;;;;3.30;1.38;;;16.90;99.90;;;;;;4134957;28;20042;-61
2024/04/08 01:59:01;;;;;;;1.90;1.05;;;16.80;99.90;;;;;;4144978;28;20061;-61
2024/04/08 02:01:02;;;;;;;2.70;1.27;;;16.80;99.90;;;;;;4137899;28;20054;-60
2024/04/08 02:03:02;;;;;;;2.65;1.10;;;16.80;99.90;;;;;;4143244;28;20050;-61
2024/04/08 02:05:09;;;;;;;1.42;1.10;;;16.80;99.90;;;;;;4138430;28;20219;-61
2024/04/08 02:07:09;;;;;;;3.25;1.23;;;16.80;99.90;;;;;;4140801;28;20052;-60
2024/04/08 02:09:10;;;;;;;2.95;1.15;;;16.80;99.90;;;;;;4128993;28;20438;-60
2024/04/08 02:11:11;;;;;;;1.38;0.80;;;16.80;99.90;;;;;;4139260;28;20126;-60
2024/04/08 02:13:12;;;;;;;3.10;1.20;;;16.80;99.90;;;;;;4144147;28;20064;-61
2024/04/08 02:15:12;;;;;;;1.75;0.90;;;16.80;99.90;;;;;;4141123;28;20034;-61
2024/04/08 02:17:13;;;;;;;3.13;1.23;;;16.80;99.90;;;;;;4138732;28;20035;-60
2024/04/08 02:19:14;;;;;;;2.08;1.30;;;16.80;99.90;;;;;;4139258;28;20084;-60
2024/04/08 02:21:14;;;;;;;5.82;1.45;;;16.80;99.90;;;;;;4139201;28;20465;-60
2024/04/08 02:23:15;;;;;;;2.10;1.23;;;16.80;99.90;;;;;;4133007;28;20030;-60
2024/04/08 02:25:17;;;;;;;1.95;1.05;;;16.80;99.90;;;;;;4134745;28;20440;-60
2024/04/08 02:27:18;;;;;;;1.73;1.10;;;16.80;99.90;;;;;;4143508;28;20042;-60
2024/04/08 02:29:18;;;;;;;1.42;1.10;;;16.70;99.90;;;;;;4139009;28;20564;-60
2024/04/08 02:31:19;;;;;;;2.50;1.30;;;16.80;99.90;;;;;;4138643;28;20049;-60
2024/04/08 02:33:20;;;;;;;2.05;1.30;;;16.80;99.90;;;;;;4128833;28;20038;-60
2024/04/08 02:35:21;;;;;;;2.70;1.00;;;16.70;99.90;;;;;;4141270;28;20356;-61
2024/04/08 02:37:21;;;;;;;2.25;1.00;;;16.70;99.90;;;;;;4139639;28;20033;-65
2024/04/08 02:39:22;;;;;;;2.03;1.23;;;16.70;99.90;;;;;;4144755;28;20037;-65
2024/04/08 02:41:25;;;;;;;1.80;1.02;;;16.70;99.90;;;;;;4162389;28;20087;-65
2024/04/08 02:43:26;;;;;;;2.78;1.48;;;16.70;99.90;;;;;;4129953;28;20487;-65
2024/04/08 02:45:27;;;;;;;2.15;1.02;;;16.70;99.90;;;;;;4136893;28;20049;-65
2024/04/08 02:47:27;;;;;;;3.63;1.52;;;16.70;99.90;;;;;;4147909;28;20026;-66
2024/04/08 02:49:28;;;;;;;2.22;1.15;;;16.70;99.90;;;;;;4143705;28;20121;-66
2024/04/08 02:51:29;;;;;;;1.77;1.13;;;16.70;99.90;;;;;;4133078;28;20026;-66
2024/04/08 02:53:30;;;;;;;2.97;1.33;;;16.70;99.90;;;;;;4132147;28;20109;-65
2024/04/08 02:55:30;;;;;;;3.55;1.50;;;16.70;99.90;;;;;;4138205;28;20572;-65
2024/04/08 02:57:31;;;;;;;3.30;1.50;;;16.60;99.90;;;;;;4131175;28;20031;-65
2024/04/08 02:59:32;;;;;;;2.17;1.27;;;16.50;99.90;;;;;;4137590;28;20526;-66
2024/04/08 03:01:32;;;;;;;3.10;1.63;;;16.50;99.90;;;;;;4137369;28;20022;-65
2024/04/08 03:03:33;;;;;;;2.70;1.88;;;16.40;99.90;;;;;;4140913;28;20034;-65
2024/04/08 03:05:33;;;;;;;4.30;1.85;;;16.40;99.90;;;;;;4127373;28;20375;-65
2024/04/08 03:07:35;;;;;;;4.15;1.95;;;16.30;99.90;;;;;;4132154;28;20022;-65
2024/04/08 03:09:35;;;;;;;5.25;2.20;;;16.30;99.90;;;;;;4130625;28;20030;-66
2024/04/08 03:11:36;;;;;;;2.50;1.40;;;16.30;99.90;;;;;;4131129;28;20544;-66
2024/04/08 03:13:38;;;;;;;2.80;1.55;;;16.40;99.90;;;;;;4145127;28;20033;-65
2024/04/08 03:15:38;;;;;;;3.17;1.83;;;16.40;99.90;;;;;;4127015;28;20022;-65
2024/04/08 03:17:40;;;;;;;2.50;1.60;;;16.40;99.90;;;;;;4130154;28;20158;-66
2024/04/08 03:19:40;;;;;;;2.67;1.50;;;16.40;99.90;;;;;;4129324;28;20038;-66
2024/04/08 03:21:41;;;;;;;2.90;1.77;;;16.40;99.90;;;;;;4131267;28;20037;-65
2024/04/08 03:23:41;;;;;;;4.28;2.40;;;16.40;99.90;;;;;;4142511;28;20026;-65
2024/04/08 03:25:42;;;;;;;4.70;1.67;;;16.50;99.90;;;;;;4135622;28;20386;-65
2024/04/08 03:27:45;;;;;;;3.58;2.03;;;16.50;99.90;;;;;;4138115;28;20042;-66
2024/04/08 03:29:46;;;;;;;3.80;1.92;;;16.50;99.90;;;;;;4132678;28;20085;-65
2024/04/08 03:31:47;;;;;;;3.97;1.80;;;16.50;99.90;;;;;;4134258;28;20030;-65
2024/04/08 03:33:48;;;;;;;2.92;1.80;;;16.50;99.90;;;;;;4137143;28;20376;-65
2024/04/08 03:35:48;;;;;;;3.08;1.55;;;16.50;99.90;;;;;;4128876;28;20058;-66
2024/04/08 03:37:49;;;;;;;3.03;1.80;;;16.50;99.90;;;;;;4131365;28;20511;-65
2024/04/08 03:39:50;;;;;;;2.40;1.55;;;16.50;99.90;;;;;;4136892;28;20041;-65
2024/04/08 03:41:50;;;;;;;2.38;1.20;;;16.50;99.90;;;;;;4158581;28;20056;-65
2024/04/08 03:43:51;;;;;;;2.25;1.30;;;16.60;99.90;;;;;;4136415;28;20035;-66
2024/04/08 03:45:52;;;;;;;2.88;1.48;;;16.60;99.90;;;;;;4124039;28;20030;-66
2024/04/08 03:47:52;;;;;;;1.60;1.10;;;16.60;99.90;;;;;;4125858;28;20046;-64
2024/04/08 03:49:53;;;;;;;2.60;1.33;;;16.60;99.90;;;;;;4126441;28;20043;-67
2024/04/08 03:51:54;;;;;;;2.35;1.23;;;16.60;99.90;;;;;;4127238;28;20061;-67
2024/04/08 03:53:55;;;;;;;2.00;1.25;;;16.50;99.90;;;;;;4137878;28;20036;-67
2024/04/08 03:56:09;;;;;;;1.23;1.05;;;16.60;99.90;;;;;;4133716;28;20058;-67
2024/04/08 03:58:13;;;;;;;2.97;1.40;;;16.60;99.90;;;;;;4129711;28;20038;-67
2024/04/08 04:00:14;;;;;;;3.42;1.20;;;16.60;99.90;;;;;;4135725;28;20038;-67
2024/04/08 04:02:15;;;;;;;2.35;1.10;;;16.60;99.90;;;;;;4115727;28;20038;-67
2024/04/08 04:04:16;;;;;;;1.85;1.15;;;16.60;99.90;;;;;;4132299;28;20034;-67
2024/04/08 04:06:17;;;;;;;2.05;1.10;;;16.60;99.90;;;;;;4146399;28;20453;-68
2024/04/08 04:08:17;;;;;;;3.75;1.35;;;16.60;99.90;;;;;;4128380;28;20033;-67
2024/04/08 04:10:18;;;;;;;2.67;1.33;;;16.60;99.90;;;;;;4127883;28;20049;-67
2024/04/08 04:12:19;;;;;;;2.38;1.25;;;16.60;99.90;;;;;;4132528;28;20069;-68
2024/04/08 04:14:21;;;;;;;1.27;1.17;;;16.50;99.90;;;;;;4129576;28;20042;-67
2024/04/08 04:16:23;;;;;;;4.30;1.67;;;16.50;99.90;;;;;;4127699;28;20058;-67
2024/04/08 04:18:23;;;;;;;2.33;1.27;;;16.50;99.90;;;;;;4141959;28;20440;-67
2024/04/08 04:20:26;;;;;;;1.88;1.17;;;16.50;99.90;;;;;;4131811;28;20030;-67
2024/04/08 04:22:27;;;;;;;1.70;1.20;;;16.50;99.90;;;;;;4125706;28;20510;-67
2024/04/08 04:24:28;;;;;;;2.33;1.50;;;16.50;99.90;;;;;;4129060;28;20053;-67
2024/04/08 04:26:31;;;;;;;4.47;1.30;;;16.50;99.90;;;;;;4132493;28;20049;-67
2024/04/08 04:28:32;;;;;;;2.63;1.45;;;16.50;99.90;;;;;;4128523;28;20176;-67
2024/04/08 04:30:33;;;;;;;2.47;1.40;;;16.50;99.90;;;;;;4122219;28;20050;-67
2024/04/08 04:32:34;;;;;;;1.40;1.30;;;16.50;99.90;;;;;;4119133;28;20039;-67
2024/04/08 04:34:35;;;;;;;3.00;1.38;;;16.50;99.90;;;;;;4126291;28;20123;-67
2024/04/08 04:36:36;;;;;;;2.58;1.20;;;16.50;99.90;;;;;;4126379;28;20030;-67
2024/04/08 04:38:36;;;;;;;1.73;1.13;;;16.50;99.90;;;;;;4118853;28;20037;-67
2024/04/08 04:40:37;;;;;;;3.22;1.40;;;16.50;99.90;;;;;;4120162;28;20559;-67
2024/04/08 04:42:37;;;;;;;1.85;1.10;;;16.50;99.90;;;;;;4122095;28;20045;-68
2024/04/08 04:44:38;;;;;;;1.73;1.10;;;16.50;99.90;;;;;;4126700;28;20030;-67
2024/04/08 04:46:39;;;;;;;2.28;1.42;;;16.50;99.90;;;;;;4133005;28;20038;-68
2024/04/08 04:48:40;;;;;;;2.35;1.00;;;16.50;99.90;;;;;;4126917;28;20026;-68
2024/04/08 04:50:41;;;;;;;4.38;1.20;;;16.40;99.90;;;;;;4131360;28;20642;-66
2024/04/08 04:52:44;;;;;;;2.65;1.55;;;16.40;99.90;;;;;;4129586;28;20027;-68
2024/04/08 04:54:45;;;;;;;3.25;1.23;;;16.30;99.90;;;;;;4136512;28;20041;-67
2024/04/08 04:56:48;;;;;;;1.90;1.42;;;16.30;99.90;;;;;;4126695;28;20410;-67
2024/04/08 04:58:49;;;;;;;1.98;1.08;;;16.30;99.90;;;;;;4126406;28;20034;-64
2024/04/08 05:00:50;;;;;;;2.08;1.38;;;16.20;99.90;;;;;;4123167;28;20118;-64
2024/04/08 05:02:50;;;;;;;1.88;1.17;;;16.20;99.90;;;;;;4129495;28;20635;-64
2024/04/08 05:04:51;;;;;;;2.38;1.13;;;16.20;99.90;;;;;;4117580;28;20479;-64
2024/04/08 05:06:52;;;;;;;1.67;1.13;;;16.20;99.90;;;;;;4106789;28;20038;-64
2024/04/08 05:08:52;;;;;;;2.42;1.20;;;16.10;99.90;;;;;;4121944;28;20030;-64
2024/04/08 05:10:53;;;;;;;2.92;1.38;;;16.10;99.90;;;;;;4120593;28;20061;-64
2024/04/08 05:12:53;;;;;;;1.30;1.20;;;16.10;99.90;;;;;;4128871;28;20030;-64
2024/04/08 05:14:54;;;;;;;1.52;1.23;;;16.10;99.90;;;;;;4115610;28;20036;-64
2024/04/08 05:16:55;;;;;;;2.22;1.42;;;16.10;99.90;;;;;;4127353;28;20035;-64
2024/04/08 05:18:55;;;;;;;3.95;1.50;;;16.10;99.90;;;;;;4120306;28;20041;-63
2024/04/08 05:20:57;;;;;;;1.42;1.20;;;16.10;99.90;;;;;;4121418;28;20097;-64
2024/04/08 05:22:58;;;;;;;4.03;1.50;;;16.20;99.90;;;;;;4122084;28;20121;-66
2024/04/08 05:24:59;;;;;;;1.58;1.30;;;16.10;99.90;;;;;;4119045;28;20046;-64
2024/04/08 05:26:59;;;;;;;2.22;1.58;;;16.10;99.90;;;;;;4110000;28;20114;-64
2024/04/08 05:29:00;;;;;;;2.25;1.60;;;16.20;99.90;;;;;;4120335;28;20488;-63
2024/04/08 05:31:01;;;;;;;3.25;1.50;;;16.10;99.90;;;;;;4126653;28;20464;-64
2024/04/08 05:33:04;;;;;;;2.78;1.50;;;16.10;99.90;;;;;;4116492;28;20046;-63
2024/04/08 05:35:06;;;;;;;2.95;1.42;;;16.10;99.90;;;;;;4116546;28;20046;-65
2024/04/08 05:37:07;;;;;;;5.85;1.52;;;16.10;99.90;;;;;;4112059;28;20039;-64
2024/04/08 05:39:08;;;;;;;3.83;1.92;;;16.20;99.90;;;;;;4116296;28;20518;-64
2024/04/08 05:41:08;;;;;;;5.82;1.70;;;16.20;99.90;;;;;;4130495;28;20057;-64
2024/04/08 05:43:15;;;;;;;2.60;1.70;;;16.20;99.90;;;;;;4116862;28;20042;-64
2024/04/08 05:45:16;;;;;;;3.05;1.63;;;16.20;99.90;;;;;;4120728;28;20070;-64
2024/04/08 05:47:16;;;;;;;3.15;1.70;;;16.20;99.90;;;;;;4122351;28;20435;-64
2024/04/08 05:49:17;;;;;;;1.90;1.30;;;16.30;99.90;;;;;;4117842;28;20038;-64
2024/04/08 05:51:17;;;;;;;2.53;1.40;;;16.20;99.90;;;;;;4115932;28;20440;-64
2024/04/08 05:53:18;;;;;;;2.22;1.58;;;16.20;99.90;;;;;;4119814;28;20118;-64
2024/04/08 05:55:19;;;;;;;1.80;1.20;;;16.30;99.90;;;;;;4138829;28;20420;-64
2024/04/08 05:57:20;;;;;;;2.47;1.33;;;16.20;99.90;;;;;;4141478;28;20431;-64
2024/04/08 05:59:21;;;;;;;2.70;1.52;;;16.30;99.90;;;;;;4143624;28;20038;-64
2024/04/08 06:01:21;;;;;;;1.67;1.48;;;16.30;99.90;;;;;;4138268;28;20059;-64
2024/04/08 06:03:22;;;;;;;3.45;1.70;;;16.30;99.90;;;;;;4138194;28;20222;-64
2024/04/08 06:05:25;;;;;;;2.40;1.33;;;16.30;99.90;;;;;;4138450;28;20124;-64
2024/04/08 06:07:26;;;;;;;2.42;1.67;;;16.30;99.90;;;;;;4131776;28;20491;-72
2024/04/08 06:09:27;;;;;;;1.40;1.13;;;16.30;99.90;;;;;;4137580;28;20117;-64
2024/04/08 06:11:27;;;;;;;3.28;1.40;;;16.40;99.90;;;;;;4136591;28;20129;-64
2024/04/08 06:13:30;;;;;;;2.40;1.50;;;16.40;99.90;;;;;;4142174;28;20084;-64
2024/04/08 06:15:31;;;;;;;2.25;1.52;;;16.40;99.90;;;;;;4135516;28;20030;-64
2024/04/08 06:17:32;;;;;;;3.78;2.13;;;16.40;99.90;;;;;;4136533;28;20393;-64
2024/04/08 06:19:33;;;;;;;3.10;1.65;;;16.40;99.90;;;;;;4144073;28;20038;-64
2024/04/08 06:21:33;;;;;;;2.63;1.77;;;16.40;99.90;;;;;;4129587;28;20386;-64
2024/04/08 06:23:34;;;;;;;2.45;1.50;;;16.40;99.90;;;;;;4155862;28;20068;-64
2024/04/08 06:25:34;;;;;;;2.35;1.55;;;16.40;99.90;;;;;;4137076;28;20046;-64
2024/04/08 06:27:35;;;;;;;4.40;1.58;;;16.40;99.90;;;;;;4144565;28;20061;-64
2024/04/08 06:29:36;;;;;;;2.85;1.55;;;16.50;99.90;;;;;;4140625;28;20498;-64
2024/04/08 06:31:37;;;;;;;3.10;1.67;;;16.50;99.90;;;;;;4148079;28;20037;-65
2024/04/08 06:33:38;;;;;;;2.30;1.70;;;16.80;99.90;;;;;;4142369;28;20033;-65
2024/04/08 06:35:42;;;;;;;3.42;1.80;;;17.20;99.90;;;;;;4141056;28;20034;-65
2024/04/08 06:37:43;;;;;;;3.28;2.10;;;17.40;99.90;;;;;;4139393;28;20077;-64
2024/04/08 06:39:43;;;;;;;4.38;2.00;;;17.70;99.90;;;;;;4138420;28;20033;-65
2024/04/08 06:41:44;;;;;;;4.78;1.98;;;17.70;99.90;;;;;;4137914;28;20088;-65
2024/04/08 06:43:46;;;;;;;3.83;2.28;;;17.70;99.90;;;;;;4137895;28;20033;-64
2024/04/08 06:45:55;;;;;;;5.53;2.00;;;18.00;99.90;;;;;;4138597;28;20055;-64
2024/04/08 06:47:56;;;;;;;5.97;2.70;;;18.10;99.90;;;;;;4142671;28;20273;-64
2024/04/08 06:49:56;;;;;;;5.00;2.90;;;18.10;99.90;;;;;;4142628;28;20112;-64
2024/04/08 06:51:57;;;;;;;4.63;2.63;;;18.10;99.90;;;;;;4140708;28;20104;-64
2024/04/08 06:53:57;;;;;;;5.45;2.50;;;18.20;99.90;;;;;;4138692;28;20039;-64
2024/04/08 06:55:58;;;;;;;4.13;2.38;;;18.30;99.90;;;;;;4137850;28;20180;-64
2024/04/08 06:57:59;;;;;;;3.95;2.20;;;18.40;99.90;;;;;;4141395;28;20382;-64
2024/04/08 07:00:00;;;;;;;4.15;2.10;;;18.50;99.90;;;;;;4136368;28;20635;-64
2024/04/08 07:02:03;;;;;;;3.40;2.17;;;18.60;99.90;;;;;;4136496;28;20036;-64
2024/04/08 07:04:03;;;;;;;4.78;2.40;;;18.60;99.90;;;;;;4141950;28;20541;-64
2024/04/08 07:06:07;;;;;;;3.00;2.00;;;18.60;99.90;;;;;;4140218;28;20042;-64
2024/04/08 07:08:08;;;;;;;2.88;1.98;;;18.60;99.90;;;;;;4137359;28;20049;-64
2024/04/08 07:10:08;;;;;;;3.05;2.00;;;18.70;99.90;;;;;;4142328;28;20124;-66
2024/04/08 07:12:09;;;;;;;5.43;2.40;;;18.70;99.90;;;;;;4141650;28;20084;-65
2024/04/08 07:14:10;;;;;;;4.82;2.50;;;18.70;99.90;;;;;;4141001;28;20046;-64
2024/04/08 07:16:10;;;;;;;5.03;2.22;;;18.80;99.90;;;;;;4154323;28;20029;-65
2024/04/08 07:18:11;;;;;;;5.82;1.98;;;18.90;99.90;;;;;;4141503;28;20037;-60
2024/04/08 07:20:12;;;;;;;4.00;2.10;;;19.00;99.90;;;;;;4140501;28;20909;-60
2024/04/08 07:22:13;;;;;;;5.18;2.25;;;19.10;99.90;;;;;;4142598;28;20590;-59
2024/04/08 07:24:13;;;;;;;3.58;1.83;;;19.10;99.90;;;;;;4141119;28;20054;-59
2024/04/08 07:26:14;;;;;;;4.90;1.80;;;19.20;99.90;;;;;;4138242;28;20046;-59
2024/04/08 07:28:14;;;;;;;3.55;1.90;;;19.20;99.90;;;;;;4145603;28;20026;-59
2024/04/08 07:30:15;;;;;;;4.15;2.28;;;19.40;99.90;;;;;;4140744;28;20030;-59
2024/04/08 07:32:16;;;;;;;5.20;2.10;;;19.30;99.90;;;;;;4137104;28;20030;-59
2024/04/08 07:34:19;;;;;;;3.10;1.83;;;19.40;99.90;;;;;;4141838;28;20033;-59
2024/04/08 07:36:20;;;;;;;3.80;2.10;;;19.50;99.90;;;;;;4138100;28;20038;-59
2024/04/08 07:38:20;;;;;;;4.85;1.90;;;19.60;99.90;;;;;;4138601;28;20490;-59
2024/04/08 07:40:21;;;;;;;3.65;1.95;;;19.70;99.90;;;;;;4144720;28;20073;-59
2024/04/08 07:42:22;;;;;;;4.13;1.90;;;19.70;99.90;;;;;;4144973;28;20026;-58
2024/04/08 07:44:24;;;;;;;4.18;2.05;;;19.70;99.90;;;;;;4141737;28;20095;-59
2024/04/08 07:46:24;;;;;;;2.83;1.90;;;19.70;99.90;;;;;;4145733;28;20490;-59
2024/04/08 07:48:25;;;;;;;3.80;2.33;;;19.60;99.90;;;;;;4142669;28;20030;-59
2024/04/08 07:50:26;;;;;;;6.03;2.53;;;19.50;99.90;;;;;;4141224;28;20109;-59
2024/04/08 07:52:26;;;;;;;6.93;2.75;;;19.60;99.90;;;;;;4144896;28;20026;-59
2024/04/08 07:54:27;;;;;;;5.78;2.40;;;19.60;99.90;;;;;;4144962;28;20123;-59
2024/04/08 07:56:28;;;;;;;4.03;2.40;;;19.60;99.90;;;;;;4140811;28;20042;-59
2024/04/08 07:58:30;;;;;;;4.50;2.58;;;19.60;99.90;;;;;;4146243;28;20127;-59
2024/04/08 08:00:30;;;;;;;4.80;2.50;;;19.70;99.90;;;;;;4143052;28;20117;-59
2024/04/08 08:02:31;;;;;;;4.15;2.17;;;19.80;99.90;;;;;;4158142;28;20427;-59
2024/04/08 08:04:32;;;;;;;4.25;2.45;;;19.70;99.90;;;;;;4143494;28;20117;-59
2024/04/08 08:06:34;;;;;;;4.53;2.30;;;19.80;99.90;;;;;;4141183;28;20456;-58
2024/04/08 08:08:35;;;;;;;5.47;2.53;;;19.70;99.90;;;;;;4146139;28;20136;-59
2024/04/08 08:10:36;;;;;;;5.55;2.70;;;19.80;99.90;;;;;;4144316;28;20029;-59
2024/04/08 08:12:36;;;;;;;6.28;3.20;;;19.70;99.90;;;;;;4145115;28;20383;-59
2024/04/08 08:14:37;;;;;;;10.70;4.20;;;19.70;99.90;;;;;;4145621;28;20045;-59
2024/04/08 08:16:38;;;;;;;6.13;3.17;;;19.40;99.90;;;;;;4137972;28;20026;-59
2024/04/08 08:18:39;;;;;;;7.00;3.50;;;19.50;99.90;;;;;;4147816;28;20036;-59
2024/04/08 08:20:39;;;;;;;5.45;3.33;;;19.50;99.90;;;;;;4145427;28;20045;-62
2024/04/08 08:22:40;;;;;;;6.10;2.90;;;19.60;99.90;;;;;;4142169;28;20123;-60
2024/04/08 08:24:40;;;;;;;5.50;3.53;;;19.70;99.90;;;;;;4144545;28;20423;-59
2024/04/08 08:26:42;;;;;;;4.10;2.97;;;19.60;99.90;;;;;;4145569;28;20037;-64
2024/04/08 08:28:46;;;;;;;6.22;2.90;;;19.70;99.90;;;;;;4136925;28;20034;-68
2024/04/08 08:30:46;;;;;;;5.43;2.55;;;19.80;99.90;;;;;;4141036;28;20068;-68
2024/04/08 08:32:50;;;;;;;5.25;2.63;;;19.90;99.90;;;;;;4138381;28;20541;-68
2024/04/08 08:34:52;;;;;;;3.95;2.65;;;19.90;99.90;;;;;;4140062;28;20066;-68
2024/04/08 08:36:53;;;;;;;5.55;3.08;;;20.10;99.90;;;;;;4137805;28;21094;-68
2024/04/08 08:38:54;;;;;;;5.50;2.70;;;20.00;99.90;;;;;;4132976;28;20053;-68
2024/04/08 08:41:07;;;;;;;5.25;2.80;;;20.10;99.90;;;;;;4140556;28;20410;-68
2024/04/08 08:43:08;;;;;;;3.47;2.47;;;20.20;99.90;;;;;;4140399;28;20034;-68
2024/04/08 08:45:13;;;;;;;7.05;3.20;;;20.30;99.90;;;;;;4137873;28;20052;-69
2024/04/08 08:47:13;;;;;;;8.35;3.55;;;20.40;99.90;;;;;;4139420;28;20046;-67
2024/04/08 08:49:18;;;;;;;7.88;3.80;;;20.40;99.90;;;;;;4139733;28;20100;-68
2024/04/08 08:51:21;;;;;;;7.32;3.75;;;20.30;99.90;;;;;;4141824;28;20080;-67
2024/04/08 08:53:22;;;;;;;6.10;3.30;;;20.30;99.90;;;;;;4139655;28;20034;-67
2024/04/08 08:55:26;;;;;;;5.10;3.45;;;20.30;99.90;;;;;;4150821;28;20041;-68
2024/04/08 08:57:29;;;;;;;5.10;2.55;;;20.40;99.90;;;;;;4141386;28;20045;-67
2024/04/08 08:59:31;;;;;;;4.72;3.08;;;20.40;99.90;;;;;;4138972;28;21730;-68
2024/04/08 09:01:32;;;;;;;5.78;3.28;;;20.50;99.90;;;;;;4141424;28;20057;-68
2024/04/08 09:03:33;;;;;;;7.88;3.95;;;20.50;99.90;;;;;;4135350;28;20042;-68
2024/04/08 09:05:34;;;;;;;9.27;3.97;;;20.50;99.90;;;;;;4135129;28;20092;-68
2024/04/08 09:07:35;;;;;;;5.63;3.30;;;20.50;99.90;;;;;;4155857;28;20037;-68
2024/04/08 09:09:36;;;;;;;8.02;4.30;;;20.60;99.90;;;;;;4135750;28;20089;-69
2024/04/08 09:11:48;;;;;;;6.07;3.38;;;20.70;99.90;;;;;;4135000;28;20041;-69
2024/04/08 09:13:50;;;;;;;6.40;3.45;;;20.80;99.90;;;;;;4140984;28;20042;-68
2024/04/08 09:15:51;;;;;;;9.50;4.60;;;20.90;99.90;;;;;;4137949;28;20087;-69
2024/04/08 09:18:05;;;;;;;6.63;4.40;;;20.90;99.90;;;;;;4142133;28;20045;-68
2024/04/08 09:20:06;;;;;;;6.05;3.38;;;20.80;99.90;;;;;;4138386;28;20604;-69
2024/04/08 09:22:08;;;;;;;6.30;3.50;;;20.90;99.90;;;;;;4139863;28;20038;-68
2024/04/08 09:24:09;;;;;;;6.03;3.97;;;21.00;99.90;;;;;;4142365;28;20037;-68
2024/04/08 09:26:09;;;;;;;6.55;3.40;;;21.00;99.90;;;;;;4134192;28;20502;-68
2024/04/08 09:28:11;;;;;;;7.47;4.30;;;21.10;99.90;;;;;;4132106;28;20038;-67
2024/04/08 09:30:12;;;;;;;14.63;6.13;;;21.00;99.90;;;;;;4136181;28;20038;-67
2024/04/08 09:32:14;;;;;;;15.07;7.38;;;21.00;99.90;;;;;;4140384;28;20103;-68
2024/04/08 09:34:15;;;;;;;10.73;7.18;;;20.90;99.90;;;;;;4138601;28;20037;-67
2024/04/08 09:36:17;;;;;;;15.65;8.48;;;20.90;99.90;;;;;;4130397;28;20717;-67
2024/04/08 09:38:21;;;;;;;12.88;7.50;;;20.90;99.90;;;;;;4135803;28;20042;-58
2024/04/08 09:40:24;;;;;;;13.05;7.22;;;20.90;99.90;;;;;;4139187;28;20439;-58
2024/04/08 09:42:32;;;;;;;10.57;5.85;;;20.90;99.90;;;;;;4144479;28;20535;-58
2024/04/08 09:44:34;;;;;;;10.55;6.25;;;21.00;99.90;;;;;;4140827;28;20057;-58
2024/04/08 09:46:35;;;;;;;8.23;4.93;;;21.00;99.90;;;;;;4138222;28;20049;-58
2024/04/08 09:48:37;;;;;;;12.00;5.57;;;21.10;99.90;;;;;;4140494;28;20038;-58
2024/04/08 09:50:41;;;;;;;11.13;5.63;;;21.10;99.90;;;;;;4141563;28;20029;-58
2024/04/08 09:52:42;;;;;;;9.60;5.40;;;21.10;99.90;;;;;;4142468;28;20052;-58
2024/04/08 09:54:42;;;;;;;10.75;5.47;;;21.10;99.90;;;;;;4142509;28;20176;-58
2024/04/08 09:56:47;;;;;;;7.15;4.75;;;21.10;99.90;;;;;;4140930;28;20129;-58
2024/04/08 09:59:02;;;;;;;9.50;4.68;;;21.20;99.90;;;;;;4137304;28;20398;-58
2024/04/08 10:01:04;;;;;;;13.80;5.97;;;21.20;99.90;;;;;;4139787;28;20057;-58
2024/04/08 10:03:09;;;;;;;8.30;4.93;;;21.00;99.90;;;;;;4144220;28;20034;-58
2024/04/08 10:05:13;;;;;;;9.63;5.13;;;21.10;99.90;;;;;;4140296;28;20038;-60
2024/04/08 10:08:52;;;;;;;9.10;4.90;;;21.10;99.90;;;;;;4498409;25;20314;-59
2024/04/08 10:10:53;;;;;;;7.95;4.18;;;21.10;99.90;;;;;;4492172;25;20324;-59
2024/04/08 10:12:58;;;;;;;9.07;4.38;;;21.20;99.90;;;;;;4490633;26;20018;-59
2024/04/08 10:15:12;;;;;;;7.57;3.47;;;21.30;99.90;;;;;;4494563;26;20007;-59
2024/04/08 10:17:13;;;;;;;6.70;3.53;;;21.30;99.90;;;;;;4491637;25;20056;-59
2024/04/08 10:19:14;;;;;;;6.78;3.08;;;21.40;99.90;;;;;;4461062;25;20031;-59
2024/04/08 10:21:15;;;;;;;3.95;2.83;;;21.40;99.90;;;;;;4491945;25;20021;-59
2024/04/08 10:23:19;;;;;;;6.38;3.22;;;21.40;99.90;;;;;;4464270;25;20000;-59
2024/04/08 10:25:42;;;;;;;5.82;3.00;;;21.50;99.90;;;;;;4546168;25;20017;-59
2024/04/08 10:27:43;;;;;;;3.72;2.55;;;21.60;99.90;;;;;;4482242;26;20016;-59
2024/04/08 10:29:44;;;;;;;4.70;3.00;;;21.60;99.90;;;;;;4484553;26;20011;-58
2024/04/08 10:31:45;;;;;;;4.32;2.63;;;21.60;99.90;;;;;;4426944;26;20032;-59